Holyoke, CO

7:12 PM MDT on May 26, 2017 (GMT -0600)
Frenchman Heights | | Change Station
Active Advisory: Severe Thunderstorm Watch

Elev 3740 ft 40.59 °N, 102.28 °W | Updated 5 minutes ago

Overcast
Overcast
57.9 °F
Feels Like 57.9 °F
N
8.9
Wind Variable Wind from ESE

Today
High -- | Low -- °F
--% Chance of Precip.
Yesterday
High -- | Low -- °F
Precip. -- in
Pressure 29.78 in
Visibility 7.0 miles
Clouds Scattered Clouds 2000 ft
Mostly Cloudy 7000 ft
Overcast 9500 ft
Dew Point 51 °F
Humidity 79%
Rainfall 0.02 in
Snow Depth Not available.
5:23 AM 8:09 PM
New Moon, 2% visible
METAR K2V5 270055Z AUTO 12027G38KT 7SM -TSRA SCT020 BKN070 OVC095 14/12 A2978 RMK AO2 LTG DSNT NE THRU S P0008
Pressure 29.78 in
Visibility 7.0 miles
Clouds Scattered Clouds 2000 ft
Mostly Cloudy 7000 ft
Overcast 9500 ft
Dew Point 51 °F
Humidity 79%
Rainfall 0.02 in
Snow Depth Not available.
5:23 AM 8:09 PM
New Moon, 2% visible
METAR K2V5 270055Z AUTO 12027G38KT 7SM -TSRA SCT020 BKN070 OVC095 14/12 A2978 RMK AO2 LTG DSNT NE THRU S P0008

Get Your Daily Forecast Email!

Thanks for signing up!

Be on the lookout for a verification email in your inbox.

You'll start receiving severe weather alerts in your inbox..

×

10-Day Weather Forecast

Almanac

Astronomy

May. 26, 2017 Rise Set
Actual Time
Civil Twilight
Nautical Twilight
Astronomical Twilight
Moon
Length of Visible Light
Length of Day
Tomorrow will be .
, % of the Moon is Illuminated

Today's Extremes

State Highs State Lows

Community

WunderPhotos

Category 6

Welcome to Category 6. This is the collective home for Weather Underground's featured writeups by Dr. Jeff Masters (right), Bob Henson (left), Chris Burt, and other regular contributors.

Nearby

Air Quality

  Air Quality AQ Index Pollutant
Not available.

Snow Depth

Station Depth Elevation

Earthquake Activity

City Distance Mag. Time & Date
Minimum magnitude displayed is 2.5.

Coastal Water Temperatures

Place Temperature

Stations

Nearby Weather Stations

Station Location Temp. Windchill Dew Point Humidity Wind Precip. Elev Updated Type
                   

Watches & Warnings

Severe Thunderstorm Watch
Issued: 7:03 PM MDT May. 26, 2017 – National Weather Service

Severe Thunderstorm Watch 268 remains in effect until 1000 PM MDT
for the following locations


Co
. Colorado counties included are

Arapahoe Baca bent
Cheyenne Crowley Douglas
Elbert El Paso Kiowa
Kit Carson Larimer Las Animas
Lincoln Logan Otero
Phillips Prowers Pueblo
Sedgwick Washington Weld
Yuma